Time;durP1;ratioP1;P1;durP2;ratioP2;P2;SDS_P1;SDS_P2;PMS_P1;PMS_P2;Temp;Humidity;BMP_temperature;BMP_pressure;BME280_temperature;BME280_humidity;BME280_pressure;Samples;Min_cycle;Max_cycle;Signal;HPM_P1;HPM_P2
2023/02/07 00:01:52;;;;;;;3.80;2.97;;;17.60;51.40;;;;;;5092764;28;20170;-50
2023/02/07 00:04:17;;;;;;;3.17;2.88;;;17.60;51.40;;;;;;5093249;28;20269;-49
2023/02/07 00:06:43;;;;;;;3.67;2.70;;;17.60;51.40;;;;;;5093370;28;20257;-51
2023/02/07 00:09:09;;;;;;;4.25;3.15;;;17.50;51.40;;;;;;5092787;28;20244;-49
2023/02/07 00:11:36;;;;;;;4.85;3.20;;;17.50;51.40;;;;;;5074966;28;20215;-51
2023/02/07 00:14:01;;;;;;;3.80;3.38;;;17.50;51.40;;;;;;5093356;28;20189;-48
2023/02/07 00:16:27;;;;;;;3.45;2.70;;;17.50;51.40;;;;;;5092306;28;20540;-52
2023/02/07 00:18:53;;;;;;;4.35;2.72;;;17.50;51.40;;;;;;5092952;28;20322;-48
2023/02/07 00:21:19;;;;;;;3.78;3.28;;;17.50;51.40;;;;;;5092780;28;20178;-50
2023/02/07 00:23:45;;;;;;;4.47;3.00;;;17.50;51.40;;;;;;5092662;28;20178;-53
2023/02/07 00:26:11;;;;;;;4.63;2.90;;;17.40;51.40;;;;;;5092563;28;20288;-53
2023/02/07 00:28:37;;;;;;;3.92;3.00;;;17.40;51.40;;;;;;5092883;28;20644;-50
2023/02/07 00:31:32;;;;;;;4.70;3.25;;;17.40;51.30;;;;;;5092478;28;20170;-51
2023/02/07 00:34:02;;;;;;;4.55;3.13;;;17.40;51.40;;;;;;5071649;28;20182;-48
2023/02/07 00:36:30;;;;;;;3.35;2.67;;;17.40;51.40;;;;;;5092899;28;20170;-52
2023/02/07 00:39:00;;;;;;;5.10;3.13;;;17.40;51.40;;;;;;5092333;28;20209;-48
2023/02/07 00:41:26;;;;;;;4.57;3.28;;;17.40;51.30;;;;;;5092714;28;20169;-53
2023/02/07 00:43:52;;;;;;;4.25;3.20;;;17.40;51.40;;;;;;5092213;28;20709;-51
2023/02/07 00:46:17;;;;;;;3.47;2.88;;;17.30;51.30;;;;;;5092554;28;20178;-50
2023/02/07 00:48:43;;;;;;;3.72;3.25;;;17.30;51.30;;;;;;5093003;28;20655;-51
2023/02/07 00:51:09;;;;;;;3.88;2.78;;;17.30;51.30;;;;;;5092065;28;20169;-48
2023/02/07 00:53:35;;;;;;;4.65;3.13;;;17.30;51.30;;;;;;5092532;28;20614;-50
2023/02/07 00:56:00;;;;;;;3.95;2.97;;;17.20;51.30;;;;;;5092878;28;20193;-51
2023/02/07 00:58:26;;;;;;;3.58;3.08;;;17.30;51.30;;;;;;5091674;28;20205;-52
2023/02/07 01:00:51;;;;;;;3.28;2.97;;;17.30;51.30;;;;;;5092634;28;20178;-52
2023/02/07 01:03:17;;;;;;;4.18;3.28;;;17.20;51.30;;;;;;5092667;28;20177;-50
2023/02/07 01:05:42;;;;;;;4.88;3.35;;;17.20;51.30;;;;;;5091980;28;20689;-53
2023/02/07 01:08:08;;;;;;;3.97;2.80;;;17.20;51.30;;;;;;5092777;28;20182;-51
2023/02/07 01:10:33;;;;;;;4.05;2.97;;;17.20;51.30;;;;;;5092375;28;20174;-53
2023/02/07 01:12:59;;;;;;;4.78;3.55;;;17.20;51.30;;;;;;5091925;28;20193;-46
2023/02/07 01:15:25;;;;;;;5.20;3.10;;;17.20;51.30;;;;;;5092219;28;20180;-46
2023/02/07 01:17:50;;;;;;;4.32;3.00;;;17.20;51.30;;;;;;5092481;28;20534;-48
2023/02/07 01:20:16;;;;;;;3.97;3.25;;;17.10;51.20;;;;;;5092081;28;20259;-47
2023/02/07 01:22:41;;;;;;;3.67;2.92;;;17.10;51.30;;;;;;5092747;28;20170;-46
2023/02/07 01:25:07;;;;;;;4.25;3.42;;;17.10;51.20;;;;;;5092743;28;20668;-47
2023/02/07 01:27:33;;;;;;;3.58;2.72;;;17.10;51.20;;;;;;5091501;28;20173;-46
2023/02/07 01:29:59;;;;;;;5.20;3.28;;;17.10;51.20;;;;;;5092471;28;20170;-48
2023/02/07 01:32:24;;;;;;;4.80;3.45;;;17.10;51.20;;;;;;5092294;28;20212;-52
2023/02/07 01:34:50;;;;;;;4.72;3.00;;;17.10;51.30;;;;;;5091932;28;20197;-49
2023/02/07 01:37:15;;;;;;;4.57;3.60;;;17.10;51.20;;;;;;5094083;28;20173;-49
2023/02/07 01:39:41;;;;;;;3.83;3.33;;;17.00;51.20;;;;;;5096001;28;20364;-50
2023/02/07 01:42:13;;;;;;;5.35;3.25;;;17.00;51.20;;;;;;5095477;28;20667;-48
2023/02/07 01:44:41;;;;;;;4.18;3.15;;;17.00;51.20;;;;;;5077835;28;20299;-45
2023/02/07 01:47:20;;;;;;;4.88;3.88;;;17.00;51.20;;;;;;5095505;28;20191;-48
2023/02/07 01:49:45;;;;;;;5.20;3.55;;;17.00;51.30;;;;;;5078915;28;20170;-48
2023/02/07 01:52:19;;;;;;;4.57;3.13;;;17.00;51.30;;;;;;5096168;28;20162;-46
2023/02/07 01:54:45;;;;;;;4.75;3.53;;;17.00;51.20;;;;;;5077307;28;20182;-45
2023/02/07 01:57:13;;;;;;;4.30;3.33;;;17.00;51.20;;;;;;5095910;28;20201;-46
2023/02/07 01:59:42;;;;;;;4.38;3.00;;;17.00;51.20;;;;;;5077582;28;20217;-46
2023/02/07 02:02:09;;;;;;;4.43;3.50;;;16.90;51.20;;;;;;5094944;28;20628;-48
2023/02/07 02:04:34;;;;;;;3.80;2.92;;;16.90;51.80;;;;;;5077359;28;20182;-51
2023/02/07 02:07:00;;;;;;;3.70;3.13;;;16.90;51.30;;;;;;5077584;28;20218;-49
2023/02/07 02:09:25;;;;;;;6.00;3.42;;;16.90;51.20;;;;;;5076504;28;20174;-49
2023/02/07 02:12:30;;;;;;;4.28;3.20;;;16.90;51.30;;;;;;5095543;28;20176;-47
2023/02/07 02:15:20;;;;;;;5.68;3.17;;;16.90;51.20;;;;;;5095691;28;20627;-48
2023/02/07 02:17:53;;;;;;;4.35;3.00;;;16.90;51.20;;;;;;5095160;28;20170;-49
2023/02/07 02:20:40;;;;;;;4.25;3.17;;;16.90;51.30;;;;;;5077069;28;20635;-52
2023/02/07 02:23:24;;;;;;;3.63;3.25;;;16.80;51.20;;;;;;5077503;28;20218;-45
2023/02/07 02:26:26;;;;;;;4.95;3.35;;;16.80;51.20;;;;;;5095550;28;20170;-49
2023/02/07 02:29:28;;;;;;;3.22;2.70;;;16.80;51.90;;;;;;5095580;28;20177;-46
2023/02/07 02:32:12;;;;;;;3.83;3.03;;;16.80;51.20;;;;;;5077538;28;20274;-53
2023/02/07 02:34:51;;;;;;;4.32;3.13;;;16.70;51.20;;;;;;5094907;28;20174;-52
2023/02/07 02:37:26;;;;;;;3.70;3.28;;;16.80;51.20;;;;;;5076228;28;20197;-50
2023/02/07 02:40:10;;;;;;;5.60;3.72;;;16.80;51.20;;;;;;5077987;28;20258;-48
2023/02/07 02:42:57;;;;;;;5.20;3.35;;;16.70;51.20;;;;;;5077280;28;20200;-47
2023/02/07 02:45:38;;;;;;;5.18;3.67;;;16.80;51.20;;;;;;5060945;28;20186;-53
2023/02/07 02:48:04;;;;;;;3.40;2.85;;;16.70;51.20;;;;;;5078459;28;20180;-49
2023/02/07 02:50:30;;;;;;;4.93;3.90;;;16.70;51.20;;;;;;5059190;28;20197;-52
2023/02/07 02:52:55;;;;;;;3.67;2.92;;;16.70;51.20;;;;;;5076913;28;20628;-51
2023/02/07 02:55:39;;;;;;;3.67;3.20;;;16.70;51.20;;;;;;5094367;28;20655;-50
2023/02/07 02:58:08;;;;;;;5.25;4.00;;;16.70;51.20;;;;;;5093869;28;20631;-52
2023/02/07 03:01:22;;;;;;;4.38;3.30;;;16.70;51.20;;;;;;5076472;28;20226;-54
2023/02/07 03:04:16;;;;;;;5.22;3.45;;;16.70;51.20;;;;;;5068429;28;20186;-53
2023/02/07 03:06:56;;;;;;;4.00;3.03;;;16.70;51.20;;;;;;5078466;28;20604;-53
2023/02/07 03:09:21;;;;;;;4.25;3.50;;;16.60;51.10;;;;;;5094321;28;20231;-50
2023/02/07 03:11:57;;;;;;;4.38;3.65;;;16.60;51.10;;;;;;5093664;28;20174;-50
2023/02/07 03:14:28;;;;;;;3.47;3.17;;;16.60;51.20;;;;;;5076338;28;20231;-54
2023/02/07 03:17:18;;;;;;;4.50;3.33;;;16.60;51.20;;;;;;5094409;28;20178;-50
2023/02/07 03:19:53;;;;;;;4.15;3.20;;;16.60;51.10;;;;;;5061404;28;20230;-51
2023/02/07 03:22:19;;;;;;;4.38;3.38;;;16.60;51.10;;;;;;5076926;28;20620;-45
2023/02/07 03:24:47;;;;;;;4.88;2.97;;;16.60;51.20;;;;;;5076260;28;20265;-48
2023/02/07 03:27:13;;;;;;;4.25;3.17;;;16.60;51.10;;;;;;5075445;28;20184;-48
2023/02/07 03:29:40;;;;;;;4.13;3.30;;;16.60;51.10;;;;;;5093877;28;20193;-48
2023/02/07 03:32:05;;;;;;;4.10;3.20;;;16.60;51.10;;;;;;5094084;28;20178;-50
2023/02/07 03:34:41;;;;;;;4.78;3.78;;;16.50;51.10;;;;;;5074826;28;20320;-47
2023/02/07 03:37:11;;;;;;;4.57;3.13;;;16.50;51.10;;;;;;5059601;28;20624;-49
2023/02/07 03:39:36;;;;;;;4.75;3.35;;;16.50;51.10;;;;;;5075316;28;20221;-48
2023/02/07 03:42:05;;;;;;;4.03;3.15;;;16.50;51.10;;;;;;5075955;28;20174;-47
2023/02/07 03:44:32;;;;;;;4.18;3.08;;;16.50;51.10;;;;;;5075355;28;20271;-45
2023/02/07 03:46:58;;;;;;;4.80;3.28;;;16.50;51.10;;;;;;5058364;28;20174;-45
2023/02/07 03:49:23;;;;;;;3.67;3.20;;;16.50;51.10;;;;;;5075381;28;20619;-48
2023/02/07 03:51:49;;;;;;;4.30;3.40;;;16.50;51.10;;;;;;5093852;28;20173;-52
2023/02/07 03:54:14;;;;;;;4.15;2.67;;;16.40;51.10;;;;;;5093054;28;20218;-49
2023/02/07 03:56:40;;;;;;;4.00;2.90;;;16.40;51.00;;;;;;5093492;28;20644;-48
2023/02/07 03:59:07;;;;;;;3.58;3.05;;;16.40;51.00;;;;;;5093454;28;20201;-48
2023/02/07 04:01:33;;;;;;;3.33;3.03;;;16.40;51.00;;;;;;5091606;28;20257;-50
2023/02/07 04:03:59;;;;;;;3.33;3.03;;;16.40;51.00;;;;;;5093416;28;20178;-47
2023/02/07 04:06:24;;;;;;;4.05;3.13;;;16.40;51.00;;;;;;5093133;28;20584;-53
2023/02/07 04:08:50;;;;;;;4.28;3.28;;;16.30;51.00;;;;;;5092583;28;20620;-47
2023/02/07 04:11:15;;;;;;;3.88;3.28;;;16.40;51.00;;;;;;5093598;28;20686;-47
2023/02/07 04:13:41;;;;;;;3.95;3.55;;;16.40;51.00;;;;;;5093063;28;20252;-48
2023/02/07 04:16:06;;;;;;;3.58;3.05;;;16.40;51.10;;;;;;5092589;28;20166;-48
2023/02/07 04:18:32;;;;;;;4.70;3.10;;;16.40;51.10;;;;;;5092821;28;20239;-49
2023/02/07 04:21:05;;;;;;;3.97;3.15;;;16.40;51.00;;;;;;5093076;28;20182;-46
2023/02/07 04:23:31;;;;;;;3.28;2.92;;;16.30;51.00;;;;;;5092431;28;20197;-46
2023/02/07 04:25:56;;;;;;;3.72;3.10;;;16.30;51.00;;;;;;5093298;28;20216;-49
2023/02/07 04:28:22;;;;;;;3.05;2.63;;;16.30;51.00;;;;;;5092835;28;20181;-46
2023/02/07 04:30:47;;;;;;;3.53;3.17;;;16.30;51.00;;;;;;5092464;28;20177;-50
2023/02/07 04:33:13;;;;;;;3.67;2.85;;;16.30;51.00;;;;;;5092998;28;20636;-48
2023/02/07 04:35:38;;;;;;;3.20;2.90;;;16.30;51.00;;;;;;5092945;28;20654;-51
2023/02/07 04:38:04;;;;;;;3.42;3.10;;;16.30;51.00;;;;;;5092220;28;20650;-51
2023/02/07 04:40:29;;;;;;;3.13;2.67;;;16.30;51.00;;;;;;5092915;28;20644;-49
2023/02/07 04:42:55;;;;;;;3.08;2.80;;;16.30;51.00;;;;;;5092439;28;20672;-48
2023/02/07 04:45:20;;;;;;;3.33;3.03;;;16.30;51.00;;;;;;5092726;28;20184;-47
2023/02/07 04:47:46;;;;;;;3.55;2.80;;;16.20;51.00;;;;;;5092841;28;20173;-47
2023/02/07 04:50:11;;;;;;;3.97;3.28;;;16.20;50.90;;;;;;5092319;28;20197;-49
2023/02/07 04:52:39;;;;;;;3.95;3.55;;;16.20;51.00;;;;;;5092654;28;20173;-50
2023/02/07 04:55:05;;;;;;;5.28;3.58;;;16.20;50.90;;;;;;5093017;28;20178;-49
2023/02/07 04:57:30;;;;;;;3.28;2.97;;;16.20;50.90;;;;;;5091901;28;20180;-48
2023/02/07 04:59:56;;;;;;;2.83;2.63;;;16.20;50.90;;;;;;5092709;28;20218;-46
2023/02/07 05:02:21;;;;;;;3.33;2.97;;;16.20;51.00;;;;;;5092316;28;20177;-47
2023/02/07 05:04:47;;;;;;;3.22;2.92;;;16.20;50.90;;;;;;5092238;28;20181;-51
2023/02/07 05:07:12;;;;;;;4.40;3.33;;;16.10;50.90;;;;;;5092812;28;20669;-51
2023/02/07 05:09:38;;;;;;;3.30;3.00;;;16.20;51.00;;;;;;5092601;28;20181;-51
2023/02/07 05:12:03;;;;;;;2.80;2.58;;;16.10;50.90;;;;;;5093321;28;20170;-47
2023/02/07 05:14:29;;;;;;;3.95;3.38;;;16.10;50.90;;;;;;5096506;28;20177;-52
2023/02/07 05:16:55;;;;;;;2.95;2.65;;;16.20;51.00;;;;;;5096628;28;20253;-47
2023/02/07 05:19:20;;;;;;;3.28;2.97;;;16.10;50.90;;;;;;5095252;28;20316;-49
2023/02/07 05:21:46;;;;;;;3.85;3.10;;;16.10;50.90;;;;;;5096793;28;20170;-48
2023/02/07 05:24:11;;;;;;;3.20;2.90;;;16.10;50.90;;;;;;5096525;28;20174;-51
2023/02/07 05:26:37;;;;;;;3.42;2.90;;;16.10;50.90;;;;;;5095511;28;20188;-49
2023/02/07 05:29:02;;;;;;;3.80;2.90;;;16.00;50.80;;;;;;5096558;28;20174;-47
2023/02/07 05:34:12;;;;;;;3.45;3.15;;;16.00;50.80;;;;;;5116120;28;20179;-48
2023/02/07 05:36:37;;;;;;;4.22;3.42;;;16.00;50.80;;;;;;5116358;28;20177;-47
2023/02/07 05:39:03;;;;;;;3.20;2.90;;;16.00;50.90;;;;;;5116465;28;20666;-52
2023/02/07 05:41:28;;;;;;;3.15;2.80;;;15.90;50.80;;;;;;5116090;28;20168;-51
2023/02/07 05:43:54;;;;;;;3.33;3.03;;;16.00;50.90;;;;;;5116685;28;20173;-49
2023/02/07 05:46:19;;;;;;;3.60;3.10;;;16.00;50.80;;;;;;5115598;28;20180;-47
2023/02/07 05:48:45;;;;;;;4.03;2.92;;;16.00;50.80;;;;;;5116535;28;20169;-47
2023/02/07 05:51:10;;;;;;;3.50;3.20;;;16.00;50.90;;;;;;5116743;28;20532;-46
2023/02/07 05:53:36;;;;;;;3.03;2.72;;;15.90;50.80;;;;;;5115284;28;20675;-47
2023/02/07 05:56:01;;;;;;;3.10;2.83;;;15.90;50.80;;;;;;5116433;28;20173;-46
2023/02/07 05:58:27;;;;;;;3.20;2.92;;;15.90;50.80;;;;;;5116187;28;20209;-49
2023/02/07 06:00:54;;;;;;;3.13;2.70;;;15.90;50.80;;;;;;5115434;28;20520;-48
2023/02/07 06:03:19;;;;;;;2.88;2.63;;;15.90;50.80;;;;;;5116091;28;20184;-49
2023/02/07 06:05:45;;;;;;;3.25;2.60;;;15.90;50.80;;;;;;5116392;28;20586;-52
2023/02/07 06:08:10;;;;;;;3.38;3.05;;;15.90;50.80;;;;;;5115547;28;20624;-49
2023/02/07 06:10:36;;;;;;;3.80;3.38;;;15.90;50.80;;;;;;5116055;28;20218;-47
2023/02/07 06:13:02;;;;;;;3.97;2.95;;;15.90;50.80;;;;;;5116284;28;20180;-46
2023/02/07 06:15:27;;;;;;;3.35;2.90;;;15.90;50.80;;;;;;5115170;28;20204;-49
2023/02/07 06:17:52;;;;;;;2.92;2.67;;;15.80;50.70;;;;;;5115666;28;20631;-54
2023/02/07 06:20:18;;;;;;;2.97;2.78;;;15.80;50.80;;;;;;5115495;28;20250;-47
2023/02/07 06:22:44;;;;;;;4.78;3.05;;;15.80;50.70;;;;;;5114871;28;20173;-49
2023/02/07 06:25:10;;;;;;;2.58;2.38;;;15.80;50.80;;;;;;5115070;28;20186;-46
2023/02/07 06:27:37;;;;;;;3.33;2.95;;;15.80;50.70;;;;;;5115454;28;20173;-51
2023/02/07 06:30:03;;;;;;;3.22;2.92;;;15.80;50.70;;;;;;5114879;28;20174;-48
2023/02/07 06:32:29;;;;;;;3.20;2.90;;;15.80;50.80;;;;;;5115407;28;20177;-49
2023/02/07 06:34:54;;;;;;;3.25;2.67;;;15.80;50.80;;;;;;5115701;28;20173;-47
2023/02/07 06:37:20;;;;;;;4.43;2.75;;;15.80;50.80;;;;;;5114756;28;20165;-47
2023/02/07 06:39:45;;;;;;;2.95;2.70;;;15.80;50.80;;;;;;5115819;28;20219;-51
2023/02/07 06:42:11;;;;;;;3.15;2.85;;;15.70;50.70;;;;;;5115344;28;20253;-50
2023/02/07 06:44:36;;;;;;;3.90;3.10;;;15.70;50.70;;;;;;5114311;28;20177;-54
2023/02/07 06:47:03;;;;;;;3.35;3.05;;;15.70;50.70;;;;;;5115484;28;20173;-48
2023/02/07 06:49:28;;;;;;;3.47;2.88;;;15.80;50.80;;;;;;5114970;28;20211;-51
2023/02/07 06:51:54;;;;;;;3.25;2.92;;;15.80;50.80;;;;;;5115438;28;20165;-47
2023/02/07 06:54:19;;;;;;;2.95;2.67;;;15.70;50.70;;;;;;5115037;28;20177;-49
2023/02/07 06:56:45;;;;;;;5.55;4.05;;;15.70;50.70;;;;;;5114493;28;20895;-49
2023/02/07 06:59:10;;;;;;;3.55;3.25;;;15.70;50.70;;;;;;5114805;28;20209;-49
2023/02/07 07:01:36;;;;;;;3.55;3.25;;;15.70;50.80;;;;;;5114900;28;20372;-48
2023/02/07 07:04:01;;;;;;;2.97;2.70;;;15.70;50.70;;;;;;5114227;28;20208;-50
2023/02/07 07:06:27;;;;;;;2.67;2.47;;;15.80;50.70;;;;;;5114740;28;20177;-51
2023/02/07 07:08:53;;;;;;;3.72;3.00;;;15.80;50.70;;;;;;5114934;28;20222;-49
2023/02/07 07:11:18;;;;;;;2.80;2.60;;;15.90;50.70;;;;;;5113757;28;20537;-49
2023/02/07 07:13:44;;;;;;;3.53;2.75;;;16.00;50.80;;;;;;5114655;28;20212;-51
2023/02/07 07:16:09;;;;;;;3.33;2.95;;;16.10;50.70;;;;;;5114749;28;20205;-47
2023/02/07 07:18:37;;;;;;;3.20;2.90;;;16.30;50.60;;;;;;5113249;28;20224;-49
2023/02/07 07:21:02;;;;;;;2.75;2.50;;;16.40;50.10;;;;;;5114796;28;20188;-46
2023/02/07 07:23:28;;;;;;;2.70;2.50;;;16.70;49.90;;;;;;5114238;28;20213;-54
2023/02/07 07:25:53;;;;;;;2.88;2.58;;;16.80;49.60;;;;;;5113729;28;20187;-62
2023/02/07 07:28:19;;;;;;;2.80;2.60;;;16.90;49.70;;;;;;5114351;28;20177;-62
2023/02/07 07:30:45;;;;;;;2.97;2.70;;;16.90;49.60;;;;;;5114714;28;20165;-64
2023/02/07 07:33:10;;;;;;;3.70;2.97;;;17.00;49.70;;;;;;5113949;28;20248;-63
2023/02/07 07:35:36;;;;;;;3.55;2.70;;;17.00;49.70;;;;;;5113919;28;20218;-62
2023/02/07 07:38:01;;;;;;;3.15;2.45;;;17.10;49.90;;;;;;5114001;28;20181;-63
2023/02/07 07:40:27;;;;;;;6.75;2.75;;;17.10;49.90;;;;;;5112879;28;20527;-60
2023/02/07 07:42:52;;;;;;;3.75;2.90;;;17.10;50.00;;;;;;5114315;28;20684;-61
2023/02/07 07:45:18;;;;;;;3.25;2.95;;;17.20;49.90;;;;;;5113345;28;20620;-61
2023/02/07 07:47:44;;;;;;;5.70;3.30;;;17.20;49.70;;;;;;5113484;28;20227;-60
2023/02/07 07:50:10;;;;;;;6.28;2.88;;;17.30;49.80;;;;;;5114228;28;20161;-60
2023/02/07 07:52:35;;;;;;;2.78;2.58;;;17.30;49.70;;;;;;5113714;28;20181;-61
2023/02/07 07:55:01;;;;;;;3.42;2.80;;;17.30;50.30;;;;;;5113295;28;20169;-61
2023/02/07 07:57:27;;;;;;;3.42;2.40;;;17.40;49.70;;;;;;5113628;28;20571;-60
2023/02/07 07:59:55;;;;;;;6.70;3.00;;;17.40;49.60;;;;;;5113325;28;20213;-60
2023/02/07 08:02:23;;;;;;;3.05;2.53;;;17.40;49.60;;;;;;5113742;28;20183;-61
2023/02/07 08:04:48;;;;;;;5.45;2.60;;;17.40;49.50;;;;;;5113965;28;20556;-69
2023/02/07 08:07:14;;;;;;;3.90;2.58;;;17.30;49.50;;;;;;5113260;28;20248;-61
2023/02/07 08:09:40;;;;;;;6.30;3.05;;;17.20;49.70;;;;;;5113351;28;20646;-60
2023/02/07 08:12:05;;;;;;;4.50;2.83;;;17.20;49.80;;;;;;5113751;28;20211;-60
2023/02/07 08:14:31;;;;;;;3.72;2.42;;;17.20;49.90;;;;;;5112880;28;20201;-61
2023/02/07 08:16:56;;;;;;;3.17;2.88;;;17.10;49.80;;;;;;5113765;28;20249;-61
2023/02/07 08:19:22;;;;;;;5.07;3.03;;;17.20;49.80;;;;;;5113217;28;20277;-60
2023/02/07 08:21:47;;;;;;;4.05;2.88;;;17.20;49.70;;;;;;5112952;28;20656;-60
2023/02/07 08:24:13;;;;;;;6.30;3.45;;;17.30;49.70;;;;;;5113601;28;20173;-60
2023/02/07 08:26:38;;;;;;;3.47;2.92;;;17.30;49.60;;;;;;5113235;28;20169;-61
2023/02/07 08:29:04;;;;;;;3.75;2.53;;;17.30;49.60;;;;;;5112733;28;20255;-61
2023/02/07 08:31:29;;;;;;;4.88;2.92;;;17.40;49.50;;;;;;5113161;28;20172;-61
2023/02/07 08:33:55;;;;;;;4.47;3.10;;;17.40;50.10;;;;;;5113381;28;20173;-61
2023/02/07 08:36:20;;;;;;;3.17;2.88;;;17.30;49.50;;;;;;5112511;28;20179;-60
2023/02/07 08:38:46;;;;;;;4.30;2.60;;;17.30;49.60;;;;;;5113335;28;20201;-61
2023/02/07 08:41:11;;;;;;;2.92;2.72;;;17.20;49.60;;;;;;5113320;28;20173;-61
2023/02/07 08:43:37;;;;;;;3.42;2.45;;;17.20;49.70;;;;;;5112508;28;20608;-61
2023/02/07 08:46:04;;;;;;;3.60;2.60;;;17.10;49.70;;;;;;5114232;28;20692;-61
2023/02/07 08:48:29;;;;;;;3.13;2.83;;;17.20;49.80;;;;;;5119887;28;20180;-60
2023/02/07 08:50:55;;;;;;;2.88;2.65;;;17.20;49.70;;;;;;5119463;28;20169;-61
2023/02/07 08:53:20;;;;;;;3.28;2.97;;;17.20;49.70;;;;;;5120214;28;20215;-60
2023/02/07 08:55:46;;;;;;;3.33;2.60;;;17.20;49.70;;;;;;5120020;28;20651;-61
2023/02/07 08:58:11;;;;;;;2.90;2.70;;;17.20;49.70;;;;;;5119214;28;20635;-60
2023/02/07 09:00:37;;;;;;;2.97;2.65;;;17.10;49.70;;;;;;5119855;28;20211;-61
2023/02/07 09:03:03;;;;;;;3.38;3.08;;;17.10;49.80;;;;;;5119621;28;20203;-61
2023/02/07 09:05:31;;;;;;;2.60;2.40;;;17.10;49.80;;;;;;5119616;28;20196;-61
2023/02/07 09:07:57;;;;;;;3.47;2.90;;;17.10;49.80;;;;;;5120080;28;20541;-61
2023/02/07 09:10:23;;;;;;;3.97;2.78;;;17.10;49.80;;;;;;5118912;28;20679;-61
2023/02/07 09:12:48;;;;;;;5.10;3.22;;;17.20;49.80;;;;;;5120166;28;20579;-61
2023/02/07 09:15:14;;;;;;;2.55;2.35;;;17.20;49.80;;;;;;5119998;28;20529;-61
2023/02/07 09:17:39;;;;;;;2.90;2.60;;;17.30;49.70;;;;;;5118908;28;20562;-61
2023/02/07 09:20:05;;;;;;;3.58;2.60;;;17.30;49.70;;;;;;5119534;28;20686;-60
2023/02/07 09:22:31;;;;;;;2.83;2.28;;;17.30;49.70;;;;;;5119507;28;20648;-60
2023/02/07 09:24:58;;;;;;;2.90;2.67;;;17.30;49.80;;;;;;5118964;28;20188;-60
2023/02/07 09:27:23;;;;;;;3.17;2.88;;;17.30;49.90;;;;;;5119589;28;20267;-61
2023/02/07 09:29:49;;;;;;;3.17;2.88;;;17.30;49.90;;;;;;5120016;28;20686;-61
2023/02/07 09:32:14;;;;;;;2.97;2.72;;;17.30;49.90;;;;;;5119079;28;20172;-61
2023/02/07 09:34:40;;;;;;;2.83;2.60;;;17.30;49.90;;;;;;5119428;28;20200;-61
2023/02/07 09:37:06;;;;;;;4.43;2.60;;;17.30;49.90;;;;;;5119609;28;20179;-61
2023/02/07 09:39:32;;;;;;;3.10;2.80;;;17.30;50.00;;;;;;5118384;28;20259;-60
2023/02/07 09:42:10;;;;;;;3.67;2.75;;;17.30;50.00;;;;;;5101442;28;20256;-61
2023/02/07 09:45:07;;;;;;;3.85;2.83;;;17.30;50.00;;;;;;5119557;28;20187;-60
2023/02/07 09:47:33;;;;;;;3.20;2.90;;;17.30;50.00;;;;;;5100568;28;20177;-60
2023/02/07 09:50:12;;;;;;;3.00;2.80;;;17.30;50.00;;;;;;5084384;28;20594;-61
2023/02/07 09:52:49;;;;;;;3.22;2.92;;;17.30;50.00;;;;;;5083745;28;20212;-62
2023/02/07 09:55:46;;;;;;;4.25;2.75;;;17.30;50.00;;;;;;5101486;28;20176;-61
2023/02/07 09:58:37;;;;;;;3.55;2.75;;;17.40;50.00;;;;;;5079563;28;20186;-62
2023/02/07 10:01:12;;;;;;;3.13;2.83;;;17.40;50.60;;;;;;5103912;28;20199;-61
2023/02/07 10:03:47;;;;;;;3.20;2.90;;;17.40;50.00;;;;;;5082272;28;20215;-61
2023/02/07 10:06:19;;;;;;;3.35;3.05;;;17.30;50.00;;;;;;5082225;28;20184;-61
2023/02/07 10:08:50;;;;;;;2.63;2.42;;;17.40;50.10;;;;;;5097456;28;20184;-61
2023/02/07 10:11:42;;;;;;;3.25;2.38;;;17.30;50.10;;;;;;5081292;28;20702;-61
2023/02/07 10:14:39;;;;;;;3.90;2.88;;;17.30;50.20;;;;;;5097384;28;20185;-61
2023/02/07 10:17:13;;;;;;;2.90;2.67;;;17.30;50.20;;;;;;5115822;28;20181;-61
2023/02/07 10:19:55;;;;;;;3.53;3.00;;;17.30;50.20;;;;;;5097542;28;20594;-61
2023/02/07 10:22:46;;;;;;;3.47;3.17;;;17.20;50.20;;;;;;5080705;28;20169;-61
2023/02/07 10:25:34;;;;;;;2.95;2.65;;;17.20;50.40;;;;;;5097662;28;20201;-60
2023/02/07 10:28:15;;;;;;;3.13;2.65;;;17.20;50.30;;;;;;5082315;28;20180;-60
2023/02/07 10:30:49;;;;;;;4.20;3.15;;;17.10;50.40;;;;;;5114327;28;20200;-60
2023/02/07 10:33:20;;;;;;;5.00;3.42;;;17.10;50.50;;;;;;5079754;28;20538;-60
2023/02/07 10:35:46;;;;;;;3.78;2.97;;;17.10;50.50;;;;;;5114527;28;20596;-60
2023/02/07 10:38:33;;;;;;;4.35;3.30;;;17.10;50.50;;;;;;5115499;28;20596;-61
2023/02/07 10:41:01;;;;;;;3.35;3.05;;;17.00;50.70;;;;;;5081074;28;20222;-60
2023/02/07 10:43:28;;;;;;;3.70;3.13;;;17.00;50.80;;;;;;5096277;28;20177;-60
2023/02/07 10:45:58;;;;;;;3.60;2.90;;;17.00;50.90;;;;;;5115007;28;20226;-61
2023/02/07 10:48:24;;;;;;;4.43;2.92;;;17.00;50.80;;;;;;5096766;28;20195;-60
2023/02/07 10:50:49;;;;;;;4.25;3.20;;;17.00;50.80;;;;;;5114574;28;20267;-60
2023/02/07 10:53:41;;;;;;;3.80;3.20;;;17.00;50.80;;;;;;5115075;28;20180;-61
2023/02/07 10:56:13;;;;;;;5.28;2.75;;;17.00;50.80;;;;;;5114211;28;20189;-61
2023/02/07 10:58:39;;;;;;;3.03;2.83;;;17.00;50.80;;;;;;5097112;28;20211;-61
2023/02/07 11:01:04;;;;;;;2.83;2.53;;;17.00;50.80;;;;;;5115196;28;20177;-61
2023/02/07 11:03:30;;;;;;;3.67;3.28;;;17.00;50.80;;;;;;5114096;28;20215;-61
2023/02/07 11:06:01;;;;;;;2.85;2.58;;;17.00;50.80;;;;;;5115073;28;20234;-62
2023/02/07 11:08:32;;;;;;;3.13;2.83;;;17.00;50.70;;;;;;5114753;28;20180;-61
2023/02/07 11:10:58;;;;;;;2.95;2.72;;;17.00;50.80;;;;;;5113760;28;20238;-61
2023/02/07 11:13:28;;;;;;;3.00;2.70;;;17.00;50.70;;;;;;5114493;28;20260;-60
2023/02/07 11:15:57;;;;;;;3.05;2.72;;;17.00;50.70;;;;;;5096736;28;20177;-60
2023/02/07 11:18:43;;;;;;;3.15;2.78;;;17.00;50.70;;;;;;5095537;28;20257;-60
2023/02/07 11:21:30;;;;;;;3.33;2.80;;;17.00;50.70;;;;;;5079537;28;20272;-60
2023/02/07 11:24:07;;;;;;;2.90;2.70;;;17.00;50.70;;;;;;5113902;28;20639;-60
2023/02/07 11:26:34;;;;;;;3.20;2.90;;;17.00;50.80;;;;;;5096298;28;20227;-60
2023/02/07 11:29:26;;;;;;;2.63;2.42;;;17.10;50.70;;;;;;5096788;28;20195;-63
2023/02/07 11:31:53;;;;;;;3.45;2.80;;;17.10;50.70;;;;;;5090960;28;20738;-71
2023/02/07 11:34:45;;;;;;;3.35;2.72;;;17.10;50.90;;;;;;5079052;28;20173;-70
2023/02/07 11:37:23;;;;;;;3.00;2.80;;;17.10;51.00;;;;;;5096772;28;20176;-66
2023/02/07 11:39:49;;;;;;;3.00;2.70;;;17.10;51.20;;;;;;5112876;28;20209;-61
2023/02/07 11:42:30;;;;;;;3.60;2.67;;;17.10;51.10;;;;;;5114342;28;20161;-61
2023/02/07 11:44:56;;;;;;;3.33;2.72;;;17.10;50.90;;;;;;5111003;28;20169;-60
2023/02/07 11:47:23;;;;;;;3.80;2.60;;;17.20;50.70;;;;;;5095412;28;20172;-61
2023/02/07 11:49:51;;;;;;;3.05;2.75;;;17.20;50.60;;;;;;5113722;28;20179;-62
2023/02/07 11:52:17;;;;;;;3.13;2.75;;;17.20;50.80;;;;;;5113047;28;20184;-60
2023/02/07 11:54:47;;;;;;;3.33;2.45;;;17.30;50.70;;;;;;5113641;28;20173;-61
2023/02/07 11:57:13;;;;;;;3.08;2.50;;;17.40;50.60;;;;;;5113921;28;20268;-60
2023/02/07 11:59:49;;;;;;;3.42;2.50;;;17.40;50.40;;;;;;5094855;28;20295;-60
2023/02/07 12:02:21;;;;;;;4.05;2.53;;;17.40;50.30;;;;;;5095726;28;20177;-61
2023/02/07 12:04:47;;;;;;;3.63;2.83;;;17.50;50.30;;;;;;5113769;28;20200;-60
2023/02/07 12:07:47;;;;;;;3.42;2.78;;;17.50;50.30;;;;;;5113091;28;20207;-62
2023/02/07 12:10:19;;;;;;;2.70;2.38;;;17.50;50.30;;;;;;5011389;28;20569;-70
2023/02/07 12:12:46;;;;;;;4.88;2.55;;;17.50;50.40;;;;;;5066576;28;20268;-60
2023/02/07 12:15:32;;;;;;;2.88;2.30;;;17.50;50.50;;;;;;5094914;28;20574;-60
2023/02/07 12:18:06;;;;;;;2.85;2.38;;;17.50;50.60;;;;;;5113121;28;20181;-60
2023/02/07 12:20:47;;;;;;;2.60;2.40;;;17.50;50.50;;;;;;5112374;28;20705;-60
2023/02/07 12:23:40;;;;;;;3.10;2.20;;;17.50;50.60;;;;;;5079687;28;20186;-60
2023/02/07 12:26:23;;;;;;;13.88;2.80;;;17.50;50.50;;;;;;5095342;28;20541;-60
2023/02/07 12:28:54;;;;;;;3.20;2.40;;;17.50;50.60;;;;;;5079825;28;20181;-62
2023/02/07 12:31:28;;;;;;;2.60;2.40;;;17.50;50.60;;;;;;5095050;28;20180;-66
2023/02/07 12:34:02;;;;;;;3.28;2.33;;;17.50;50.70;;;;;;5079088;28;20173;-66
2023/02/07 12:36:33;;;;;;;3.13;2.22;;;17.50;50.80;;;;;;5077231;28;20255;-65
2023/02/07 12:39:02;;;;;;;3.47;2.20;;;17.50;51.10;;;;;;5094447;28;20208;-65
2023/02/07 12:41:32;;;;;;;3.63;2.38;;;17.50;51.10;;;;;;5093646;28;20165;-64
2023/02/07 12:44:15;;;;;;;2.60;2.40;;;17.40;51.00;;;;;;5113210;28;20184;-64
2023/02/07 12:46:57;;;;;;;3.20;2.55;;;17.40;51.00;;;;;;5094467;28;20657;-64
2023/02/07 12:49:46;;;;;;;2.60;1.85;;;17.40;51.00;;;;;;5093923;28;20180;-63
2023/02/07 12:52:52;;;;;;;2.58;2.35;;;17.30;50.80;;;;;;5113233;28;20256;-64
2023/02/07 12:55:32;;;;;;;2.22;2.03;;;17.30;50.80;;;;;;5096521;28;20177;-64
2023/02/07 12:58:31;;;;;;;2.33;2.00;;;17.30;50.80;;;;;;5079405;28;20188;-64
2023/02/07 13:00:59;;;;;;;2.13;1.92;;;17.30;50.70;;;;;;5094536;28;20189;-64
2023/02/07 13:03:41;;;;;;;2.42;2.22;;;17.30;50.70;;;;;;5093994;28;20179;-65
2023/02/07 13:06:20;;;;;;;2.75;2.03;;;17.30;50.50;;;;;;5079002;28;20616;-65